Time;durP1;ratioP1;P1;durP2;ratioP2;P2;SDS_P1;SDS_P2;PMS_P1;PMS_P2;Temp;Humidity;BMP_temperature;BMP_pressure;BME280_temperature;BME280_humidity;BME280_pressure;Samples;Min_cycle;Max_cycle;Signal;HPM_P1;HPM_P2
2022/04/07 00:02:13;;;;;;;2.23;2.03;;;11.30;94.00;;;;;;5005895;28;20201;-84
2022/04/07 00:04:39;;;;;;;2.63;2.43;;;11.40;92.80;;;;;;5004728;28;20190;-85
2022/04/07 00:07:04;;;;;;;2.10;1.93;;;11.30;93.40;;;;;;5009658;28;20189;-86
2022/04/07 00:09:30;;;;;;;2.10;1.90;;;11.30;92.30;;;;;;5016659;28;20541;-86
2022/04/07 00:11:56;;;;;;;2.43;1.80;;;11.30;92.30;;;;;;5009884;28;20704;-86
2022/04/07 00:14:21;;;;;;;2.40;1.90;;;11.30;91.80;;;;;;5011235;28;20185;-86
2022/04/07 00:16:47;;;;;;;2.00;1.80;;;11.40;90.20;;;;;;5010806;28;20202;-85
2022/04/07 00:19:13;;;;;;;2.50;2.30;;;11.30;90.20;;;;;;5006764;28;20282;-86
2022/04/07 00:21:40;;;;;;;1.80;1.70;;;11.40;90.40;;;;;;5010565;28;20198;-85
2022/04/07 00:24:07;;;;;;;1.70;1.60;;;11.40;90.50;;;;;;5007680;28;20205;-86
2022/04/07 00:26:34;;;;;;;2.13;1.90;;;11.40;92.20;;;;;;5006763;28;20187;-85
2022/04/07 00:29:00;;;;;;;2.20;2.00;;;11.30;93.20;;;;;;5009160;28;20224;-84
2022/04/07 00:31:25;;;;;;;2.10;1.90;;;11.30;94.50;;;;;;5006836;28;20186;-86
2022/04/07 00:33:52;;;;;;;2.33;2.07;;;11.20;95.00;;;;;;5011827;28;20224;-86
2022/04/07 00:36:18;;;;;;;1.90;1.80;;;11.30;94.90;;;;;;5008994;28;20181;-86
2022/04/07 00:38:44;;;;;;;2.10;1.80;;;11.20;95.50;;;;;;5007177;28;20485;-86
2022/04/07 00:41:10;;;;;;;1.67;1.57;;;11.20;94.30;;;;;;5006200;28;20186;-87
2022/04/07 00:43:36;;;;;;;1.60;1.50;;;11.10;94.70;;;;;;5007872;28;20247;-86
2022/04/07 00:46:03;;;;;;;2.33;1.83;;;11.10;94.60;;;;;;5005011;28;20238;-86
2022/04/07 00:48:30;;;;;;;1.60;1.50;;;11.10;94.30;;;;;;5005545;28;20255;-86
2022/04/07 00:50:57;;;;;;;1.50;1.40;;;11.10;93.10;;;;;;5013561;28;20196;-84
2022/04/07 00:53:23;;;;;;;1.53;1.43;;;11.20;93.40;;;;;;5032297;28;20427;-84
2022/04/07 00:55:53;;;;;;;2.10;1.40;;;11.20;93.20;;;;;;5026520;28;20194;-82
2022/04/07 00:58:19;;;;;;;1.30;1.20;;;11.10;93.50;;;;;;5022969;28;20206;-85
2022/04/07 01:00:45;;;;;;;1.43;1.33;;;11.20;93.70;;;;;;5007143;28;20182;-84
2022/04/07 01:03:11;;;;;;;2.30;1.53;;;11.10;94.30;;;;;;5010503;28;20182;-84
2022/04/07 01:05:38;;;;;;;1.57;1.47;;;11.10;94.80;;;;;;5013874;28;20604;-85
2022/04/07 01:08:08;;;;;;;2.20;1.80;;;11.00;95.20;;;;;;5006886;28;20242;-85
2022/04/07 01:10:33;;;;;;;1.70;1.60;;;11.10;95.60;;;;;;5007135;28;20277;-85
2022/04/07 01:12:59;;;;;;;2.73;1.80;;;11.10;95.70;;;;;;5009139;28;20217;-85
2022/04/07 01:15:25;;;;;;;1.40;1.30;;;11.10;95.20;;;;;;5015628;28;20251;-84
2022/04/07 01:17:51;;;;;;;2.13;1.37;;;11.10;95.50;;;;;;5018280;28;20217;-85
2022/04/07 01:20:16;;;;;;;1.50;1.40;;;11.00;95.10;;;;;;5023122;28;20646;-86
2022/04/07 01:22:46;;;;;;;1.47;1.33;;;11.00;95.60;;;;;;5013397;28;20313;-86
2022/04/07 01:25:13;;;;;;;1.40;1.30;;;11.00;95.40;;;;;;5011296;28;20189;-85
2022/04/07 01:27:39;;;;;;;1.33;1.23;;;11.10;94.80;;;;;;5015474;28;20290;-84
2022/04/07 01:30:10;;;;;;;1.30;1.27;;;11.00;95.90;;;;;;5011226;28;20505;-85
2022/04/07 01:32:46;;;;;;;1.37;1.30;;;11.00;95.30;;;;;;5010309;28;20194;-85
2022/04/07 01:35:12;;;;;;;1.60;1.43;;;11.10;94.90;;;;;;5005611;28;20194;-86
2022/04/07 01:37:41;;;;;;;1.90;1.40;;;11.00;94.90;;;;;;5009240;28;20221;-85
2022/04/07 01:40:14;;;;;;;1.93;1.33;;;11.00;95.50;;;;;;5013469;28;20268;-86
2022/04/07 01:42:40;;;;;;;3.33;1.10;;;10.90;97.60;;;;;;5012044;28;20200;-85
2022/04/07 01:45:07;;;;;;;1.40;1.30;;;10.80;98.10;;;;;;5017577;28;20186;-85
2022/04/07 01:47:37;;;;;;;1.50;1.40;;;10.80;99.90;;;;;;5008859;28;20545;-85
2022/04/07 01:50:07;;;;;;;1.30;1.20;;;10.70;99.90;;;;;;5010092;28;20197;-86
2022/04/07 01:52:38;;;;;;;1.53;1.43;;;10.60;99.90;;;;;;5030140;28;20242;-85
2022/04/07 01:55:05;;;;;;;1.43;1.33;;;10.50;99.90;;;;;;5013793;28;20202;-85
2022/04/07 01:57:32;;;;;;;1.50;1.40;;;10.40;99.90;;;;;;5012770;28;20213;-85
2022/04/07 01:59:58;;;;;;;1.57;1.40;;;10.40;99.90;;;;;;5013789;28;20205;-86
2022/04/07 02:02:24;;;;;;;1.67;1.57;;;10.50;99.90;;;;;;5013454;28;20355;-85
2022/04/07 02:04:54;;;;;;;1.50;1.40;;;10.40;99.90;;;;;;5018607;28;20189;-85
2022/04/07 02:07:20;;;;;;;1.77;1.50;;;10.30;99.90;;;;;;5015097;28;20206;-86
2022/04/07 02:09:45;;;;;;;1.67;1.40;;;10.40;99.90;;;;;;5020826;28;20216;-85
2022/04/07 02:12:11;;;;;;;1.40;1.30;;;10.30;99.90;;;;;;5018783;28;20185;-86
2022/04/07 02:14:37;;;;;;;2.27;1.93;;;10.30;99.90;;;;;;5017551;28;20189;-83
2022/04/07 02:17:03;;;;;;;1.97;1.40;;;10.20;99.90;;;;;;5023584;28;20197;-86
2022/04/07 02:19:29;;;;;;;1.70;1.60;;;10.20;99.90;;;;;;5015132;28;20205;-86
2022/04/07 02:21:55;;;;;;;1.40;1.30;;;10.20;99.90;;;;;;5020247;28;20184;-85
2022/04/07 02:24:21;;;;;;;2.10;1.60;;;10.20;99.90;;;;;;5012219;28;20190;-85
2022/04/07 02:26:46;;;;;;;1.87;1.60;;;10.20;99.90;;;;;;5022383;28;20406;-87
2022/04/07 02:29:12;;;;;;;1.40;1.30;;;10.20;99.90;;;;;;5017973;28;20250;-86
2022/04/07 02:31:38;;;;;;;1.60;1.50;;;10.30;99.90;;;;;;5015967;28;20194;-86
2022/04/07 02:34:06;;;;;;;1.50;1.40;;;10.40;99.90;;;;;;5014965;28;20273;-84
2022/04/07 02:36:32;;;;;;;1.60;1.50;;;10.40;99.40;;;;;;5010458;28;20200;-85
2022/04/07 02:38:59;;;;;;;1.50;1.40;;;10.40;98.90;;;;;;5016147;28;20217;-86
2022/04/07 02:41:25;;;;;;;1.57;1.47;;;10.50;97.30;;;;;;5014282;28;20236;-84
2022/04/07 02:43:51;;;;;;;1.93;1.60;;;10.50;96.70;;;;;;5017381;28;20189;-85
2022/04/07 02:46:16;;;;;;;1.20;1.20;;;10.50;96.10;;;;;;5016081;28;20185;-85
2022/04/07 02:48:42;;;;;;;1.40;1.30;;;10.50;97.30;;;;;;5026259;28;20348;-85
2022/04/07 02:51:08;;;;;;;1.77;1.47;;;10.50;96.20;;;;;;5023532;28;20205;-84
2022/04/07 02:53:34;;;;;;;1.67;1.40;;;10.70;95.60;;;;;;5014665;28;20198;-85
2022/04/07 02:55:59;;;;;;;1.20;1.10;;;10.60;96.40;;;;;;5009507;28;20202;-86
2022/04/07 02:58:25;;;;;;;2.53;1.57;;;10.60;96.60;;;;;;5016007;28;20414;-85
2022/04/07 03:00:51;;;;;;;1.90;1.30;;;10.70;95.60;;;;;;5011827;28;20198;-84
2022/04/07 03:03:17;;;;;;;1.40;1.30;;;10.70;94.50;;;;;;5016365;28;20566;-84
2022/04/07 03:05:42;;;;;;;1.50;1.40;;;10.70;93.60;;;;;;5011270;28;20701;-85
2022/04/07 03:08:08;;;;;;;2.33;1.40;;;10.70;95.00;;;;;;5014895;28;20213;-86
2022/04/07 03:10:34;;;;;;;1.60;1.30;;;10.60;94.10;;;;;;5031013;28;20190;-84
2022/04/07 03:12:59;;;;;;;1.57;1.47;;;10.70;93.80;;;;;;5019683;28;20190;-83
2022/04/07 03:15:25;;;;;;;1.67;1.40;;;10.70;94.30;;;;;;5021173;28;20198;-82
2022/04/07 03:17:50;;;;;;;1.97;1.60;;;10.70;94.40;;;;;;5030166;28;20228;-83
2022/04/07 03:20:16;;;;;;;1.43;1.30;;;10.60;93.90;;;;;;5017803;28;20228;-86
2022/04/07 03:22:43;;;;;;;1.43;1.33;;;10.60;93.90;;;;;;5010586;28;20194;-86
2022/04/07 03:25:09;;;;;;;1.50;1.40;;;10.60;94.40;;;;;;5008090;28;20183;-86
2022/04/07 03:27:34;;;;;;;1.37;1.13;;;10.60;94.30;;;;;;5010162;28;20220;-85
2022/04/07 03:30:00;;;;;;;1.50;1.40;;;10.60;94.30;;;;;;5021669;28;20205;-86
2022/04/07 03:32:26;;;;;;;1.40;1.30;;;10.50;94.80;;;;;;5016134;28;20193;-86
2022/04/07 03:34:51;;;;;;;1.47;1.20;;;10.50;94.30;;;;;;5015572;28;20198;-86
2022/04/07 03:37:20;;;;;;;1.33;1.23;;;10.50;95.00;;;;;;5013209;28;20197;-84
2022/04/07 03:39:46;;;;;;;1.97;1.50;;;10.50;94.80;;;;;;5019546;28;20181;-86
2022/04/07 03:42:12;;;;;;;1.93;1.43;;;10.40;95.50;;;;;;5015521;28;20187;-84
2022/04/07 03:44:37;;;;;;;1.30;1.30;;;10.50;95.10;;;;;;5027779;28;20195;-86
2022/04/07 03:47:04;;;;;;;1.50;1.10;;;10.40;96.60;;;;;;5017407;28;20204;-86
2022/04/07 03:49:30;;;;;;;2.00;1.40;;;10.40;96.60;;;;;;5018229;28;20204;-86
2022/04/07 03:51:56;;;;;;;1.73;1.60;;;10.40;96.70;;;;;;5014376;28;20216;-84
2022/04/07 03:54:21;;;;;;;1.30;1.20;;;10.40;96.00;;;;;;5008440;28;20197;-85
2022/04/07 03:56:47;;;;;;;1.50;1.40;;;10.40;97.50;;;;;;5009578;28;20810;-88
2022/04/07 03:59:13;;;;;;;1.70;1.60;;;10.40;97.70;;;;;;5014765;28;20562;-86
2022/04/07 04:01:40;;;;;;;1.70;1.60;;;10.50;96.80;;;;;;5014839;28;20190;-85
2022/04/07 04:04:06;;;;;;;2.00;1.60;;;10.40;97.90;;;;;;5008389;28;20185;-85
2022/04/07 04:06:33;;;;;;;1.70;1.40;;;10.40;98.00;;;;;;5012965;28;20660;-85
2022/04/07 04:08:59;;;;;;;1.70;1.60;;;10.40;98.00;;;;;;5023449;28;20783;-85
2022/04/07 04:11:24;;;;;;;2.80;1.60;;;10.40;98.50;;;;;;5018242;28;20221;-85
2022/04/07 04:13:50;;;;;;;2.87;2.00;;;10.40;98.20;;;;;;5010841;28;20216;-85
2022/04/07 04:16:17;;;;;;;1.70;1.60;;;10.30;97.70;;;;;;5017907;28;20190;-86
2022/04/07 04:18:43;;;;;;;2.67;2.13;;;10.40;98.80;;;;;;5010384;28;20655;-85
2022/04/07 04:21:09;;;;;;;1.53;1.43;;;10.40;98.40;;;;;;5012736;28;20177;-84
2022/04/07 04:23:35;;;;;;;2.87;1.50;;;10.40;99.10;;;;;;5012720;28;20195;-84
2022/04/07 04:26:01;;;;;;;3.60;1.80;;;10.30;99.50;;;;;;5010345;28;20186;-85
2022/04/07 04:28:27;;;;;;;4.00;1.70;;;10.30;99.30;;;;;;5015176;28;20217;-85
2022/04/07 04:30:53;;;;;;;1.67;1.53;;;10.30;99.90;;;;;;5015803;28;20193;-84
2022/04/07 04:33:18;;;;;;;2.27;1.90;;;10.40;99.50;;;;;;5013000;28;20273;-86
2022/04/07 04:35:44;;;;;;;1.60;1.50;;;10.40;99.30;;;;;;5013013;28;20321;-85
2022/04/07 04:38:10;;;;;;;1.63;1.53;;;10.30;99.40;;;;;;5023228;28;20228;-85
2022/04/07 04:40:36;;;;;;;2.57;1.73;;;10.30;99.50;;;;;;5019433;28;20177;-85
2022/04/07 04:43:02;;;;;;;1.73;1.63;;;10.30;99.90;;;;;;5027787;28;20182;-84
2022/04/07 04:45:27;;;;;;;1.77;1.67;;;10.40;99.40;;;;;;5019296;28;20245;-85
2022/04/07 04:47:53;;;;;;;1.50;1.40;;;10.30;99.70;;;;;;5022873;28;20227;-86
2022/04/07 04:50:19;;;;;;;1.77;1.60;;;10.30;99.70;;;;;;5009837;28;20201;-84
2022/04/07 04:52:45;;;;;;;2.37;1.80;;;10.20;99.90;;;;;;5016653;28;20194;-86
2022/04/07 04:55:11;;;;;;;1.30;1.30;;;10.30;99.80;;;;;;5013863;28;20268;-85
2022/04/07 04:57:37;;;;;;;3.33;1.50;;;10.30;99.60;;;;;;5008917;28;20264;-85
2022/04/07 05:00:04;;;;;;;1.90;1.60;;;10.30;99.60;;;;;;5015613;28;20201;-86
2022/04/07 05:02:30;;;;;;;1.60;1.50;;;10.30;99.80;;;;;;5017992;28;20181;-83
2022/04/07 05:04:56;;;;;;;1.40;1.30;;;10.30;99.90;;;;;;5011155;28;20265;-85
2022/04/07 05:07:22;;;;;;;1.50;1.40;;;10.20;99.70;;;;;;5014621;28;20212;-85
2022/04/07 05:09:48;;;;;;;1.50;1.40;;;10.30;99.90;;;;;;5010189;28;20273;-86
2022/04/07 05:12:14;;;;;;;1.40;1.30;;;10.30;99.40;;;;;;5008115;28;20190;-85
2022/04/07 05:14:39;;;;;;;1.50;1.40;;;10.30;99.40;;;;;;5011579;28;20221;-85
2022/04/07 05:17:05;;;;;;;1.87;1.33;;;10.20;99.90;;;;;;5011523;28;20274;-86
2022/04/07 05:19:31;;;;;;;3.00;1.60;;;10.30;99.90;;;;;;5011498;28;20266;-86
2022/04/07 05:21:56;;;;;;;1.30;1.30;;;10.30;99.70;;;;;;5008733;28;20225;-85
2022/04/07 05:24:22;;;;;;;1.70;1.60;;;10.40;98.80;;;;;;5012994;28;20648;-86
2022/04/07 05:26:48;;;;;;;1.50;1.40;;;10.40;98.90;;;;;;5018181;28;20220;-87
2022/04/07 05:29:13;;;;;;;1.90;1.50;;;10.30;99.20;;;;;;5007730;28;20716;-86
2022/04/07 05:31:39;;;;;;;1.50;1.40;;;10.30;99.00;;;;;;5011358;28;20221;-86
2022/04/07 05:34:05;;;;;;;1.50;1.40;;;10.30;99.30;;;;;;5013867;28;20201;-86
2022/04/07 05:36:31;;;;;;;1.37;1.27;;;10.30;99.60;;;;;;5022440;28;20196;-85
2022/04/07 05:38:57;;;;;;;1.43;1.30;;;10.30;99.70;;;;;;5025701;28;20291;-86
2022/04/07 05:41:22;;;;;;;1.50;1.40;;;10.40;98.70;;;;;;5013498;28;20269;-88
2022/04/07 05:43:48;;;;;;;1.20;1.20;;;10.40;99.30;;;;;;5001814;28;20491;-86
2022/04/07 05:46:14;;;;;;;2.70;1.30;;;10.50;98.70;;;;;;5011945;28;20194;-86
2022/04/07 05:48:39;;;;;;;2.20;1.50;;;10.50;99.40;;;;;;5017761;28;20222;-86
2022/04/07 05:51:05;;;;;;;1.60;1.50;;;10.50;98.70;;;;;;5012064;28;20656;-85
2022/04/07 05:53:31;;;;;;;1.73;1.30;;;10.50;99.20;;;;;;5010598;28;20189;-88
2022/04/07 05:55:58;;;;;;;1.20;1.10;;;10.50;99.50;;;;;;5011298;28;20193;-85
2022/04/07 05:58:24;;;;;;;1.27;1.17;;;10.50;99.50;;;;;;5013710;28;20962;-86
2022/04/07 06:00:51;;;;;;;2.67;1.27;;;10.60;98.90;;;;;;5010233;28;20582;-86
2022/04/07 06:03:17;;;;;;;1.47;1.27;;;10.60;99.60;;;;;;5010432;28;20254;-86
2022/04/07 06:05:42;;;;;;;1.53;1.30;;;10.50;99.90;;;;;;5012902;28;20209;-86
2022/04/07 06:08:08;;;;;;;1.20;1.10;;;10.40;99.90;;;;;;5009537;28;20260;-84
2022/04/07 06:10:34;;;;;;;2.67;1.50;;;10.30;99.90;;;;;;5013522;28;20248;-85
2022/04/07 06:13:00;;;;;;;1.20;1.20;;;10.20;99.90;;;;;;5009912;28;20190;-86
2022/04/07 06:15:26;;;;;;;1.40;1.30;;;10.10;99.90;;;;;;5015179;28;20247;-85
2022/04/07 06:17:52;;;;;;;1.67;1.57;;;10.10;99.90;;;;;;5017596;28;20716;-86
2022/04/07 06:20:18;;;;;;;1.23;1.20;;;10.10;99.90;;;;;;5017229;28;20194;-87
2022/04/07 06:22:45;;;;;;;1.90;1.30;;;10.10;99.90;;;;;;5016474;28;20209;-87
2022/04/07 06:25:11;;;;;;;1.13;1.13;;;10.10;99.90;;;;;;5017688;28;20292;-86
2022/04/07 06:27:42;;;;;;;1.13;1.03;;;10.20;99.90;;;;;;5014368;28;20232;-86
2022/04/07 06:30:11;;;;;;;1.30;1.23;;;10.10;99.90;;;;;;5015915;28;20194;-87
2022/04/07 06:32:37;;;;;;;1.03;1.03;;;10.20;99.90;;;;;;5021940;28;20186;-85
2022/04/07 06:35:03;;;;;;;3.67;1.10;;;10.20;99.90;;;;;;5012225;28;20237;-87
2022/04/07 06:37:29;;;;;;;2.93;1.67;;;10.20;99.90;;;;;;5009069;28;20226;-87
2022/04/07 06:40:03;;;;;;;3.83;1.30;;;10.20;99.90;;;;;;5012079;28;20193;-85
2022/04/07 06:42:29;;;;;;;1.67;1.00;;;10.20;99.90;;;;;;5008699;28;20198;-86
2022/04/07 06:44:55;;;;;;;2.00;1.40;;;10.20;99.90;;;;;;5008168;28;20799;-86
2022/04/07 06:47:24;;;;;;;0.90;0.90;;;10.20;99.90;;;;;;5015832;28;20206;-87
2022/04/07 06:49:52;;;;;;;4.03;1.30;;;10.20;99.90;;;;;;5023781;28;20185;-87
2022/04/07 06:52:18;;;;;;;1.20;1.10;;;10.20;99.90;;;;;;5024520;28;20625;-85
2022/04/07 06:54:45;;;;;;;2.13;1.20;;;10.20;99.90;;;;;;5007377;28;20240;-85
2022/04/07 06:57:11;;;;;;;1.10;1.10;;;10.20;99.90;;;;;;5023630;28;20182;-85
2022/04/07 06:59:37;;;;;;;1.10;1.10;;;10.30;99.90;;;;;;5013878;28;20210;-85
2022/04/07 07:02:03;;;;;;;1.13;1.10;;;10.20;99.90;;;;;;5022287;28;20544;-85
2022/04/07 07:04:32;;;;;;;1.30;1.20;;;10.20;99.90;;;;;;5022397;28;20204;-86
2022/04/07 07:06:58;;;;;;;1.33;1.00;;;10.10;99.90;;;;;;5021997;28;20186;-84
2022/04/07 07:09:23;;;;;;;1.37;1.20;;;10.10;99.90;;;;;;5022220;28;20208;-84
2022/04/07 07:11:49;;;;;;;1.83;1.37;;;10.10;99.90;;;;;;5007265;28;20193;-85
2022/04/07 07:14:15;;;;;;;4.53;1.30;;;10.20;99.90;;;;;;5010596;28;20280;-86
2022/04/07 07:16:40;;;;;;;3.60;1.50;;;10.20;99.90;;;;;;5018923;28;20264;-86
2022/04/07 07:19:06;;;;;;;1.43;1.10;;;10.10;99.90;;;;;;5011073;28;20225;-88
2022/04/07 07:21:32;;;;;;;1.40;1.30;;;10.10;99.90;;;;;;5006479;28;20205;-85
2022/04/07 07:23:59;;;;;;;2.33;1.10;;;10.10;99.90;;;;;;5019965;28;20189;-85
2022/04/07 07:26:24;;;;;;;1.53;1.23;;;10.10;99.90;;;;;;5022234;28;20200;-87
2022/04/07 07:28:50;;;;;;;1.03;1.03;;;10.20;99.90;;;;;;5022570;28;20213;-85
2022/04/07 07:31:16;;;;;;;1.47;1.37;;;10.20;99.90;;;;;;5021274;28;20193;-86
2022/04/07 07:33:41;;;;;;;2.87;1.53;;;10.20;99.90;;;;;;5023767;28;20197;-85
2022/04/07 07:36:07;;;;;;;1.90;1.23;;;10.20;99.90;;;;;;5021980;28;20186;-85
2022/04/07 07:38:33;;;;;;;2.80;1.23;;;10.30;99.90;;;;;;5022885;28;20240;-87
2022/04/07 07:40:58;;;;;;;1.27;1.00;;;10.30;99.90;;;;;;5021893;28;20608;-86
2022/04/07 07:43:24;;;;;;;2.23;1.37;;;10.40;99.90;;;;;;5015748;28;20178;-85
2022/04/07 07:45:50;;;;;;;2.07;1.40;;;10.50;99.90;;;;;;5023263;28;20258;-85
2022/04/07 07:48:18;;;;;;;1.97;1.20;;;10.60;99.90;;;;;;5018922;28;20228;-85
2022/04/07 07:50:45;;;;;;;1.47;1.37;;;10.70;99.90;;;;;;5016988;28;20216;-86
2022/04/07 07:53:11;;;;;;;1.27;1.17;;;10.80;99.90;;;;;;5014693;28;20181;-86
2022/04/07 07:55:38;;;;;;;1.57;1.33;;;10.80;99.90;;;;;;5021501;28;20272;-86
2022/04/07 07:58:04;;;;;;;3.83;2.17;;;10.90;99.90;;;;;;5010351;28;20222;-88
2022/04/07 08:00:30;;;;;;;2.97;1.60;;;10.80;99.90;;;;;;5019947;28;20193;-85
2022/04/07 08:02:55;;;;;;;1.40;1.10;;;10.80;99.90;;;;;;5007917;28;20194;-85
2022/04/07 08:05:21;;;;;;;1.90;1.80;;;11.00;99.90;;;;;;5015030;28;20197;-85
2022/04/07 08:07:47;;;;;;;1.77;1.30;;;11.00;99.90;;;;;;4997597;28;20210;-85
2022/04/07 08:10:13;;;;;;;1.30;1.20;;;11.10;99.70;;;;;;5015508;28;20198;-87
2022/04/07 08:12:40;;;;;;;1.47;1.37;;;11.20;99.90;;;;;;5024368;28;20652;-87
2022/04/07 08:15:06;;;;;;;2.30;1.33;;;11.30;99.80;;;;;;5020178;28;20182;-87
2022/04/07 08:17:33;;;;;;;1.67;1.23;;;11.50;98.00;;;;;;5024785;28;20213;-90
2022/04/07 08:19:58;;;;;;;1.60;1.20;;;11.60;97.60;;;;;;5037786;28;20191;-90
2022/04/07 08:22:24;;;;;;;2.50;1.37;;;11.70;96.60;;;;;;5020536;28;20174;-86
2022/04/07 08:24:50;;;;;;;1.40;1.30;;;11.70;96.50;;;;;;5025138;28;20695;-86
2022/04/07 08:27:16;;;;;;;2.07;1.40;;;11.70;94.40;;;;;;5025427;28;20190;-85
2022/04/07 08:29:41;;;;;;;4.47;1.50;;;11.70;93.60;;;;;;5025478;28;20190;-86
2022/04/07 08:32:08;;;;;;;1.20;1.20;;;11.70;94.40;;;;;;5025742;28;20730;-87
2022/04/07 08:34:35;;;;;;;2.30;1.30;;;11.70;93.50;;;;;;5022142;28;20711;-86
2022/04/07 08:37:01;;;;;;;1.57;1.33;;;11.60;95.40;;;;;;5011034;28;20195;-87
2022/04/07 08:39:27;;;;;;;2.40;1.20;;;11.50;96.00;;;;;;5003053;28;20232;-85
2022/04/07 08:41:53;;;;;;;2.50;1.20;;;11.60;96.00;;;;;;5010095;28;20213;-86
2022/04/07 08:44:19;;;;;;;1.20;1.20;;;11.70;95.40;;;;;;5022651;28;20201;-86
2022/04/07 08:46:52;;;;;;;1.27;1.20;;;11.70;97.00;;;;;;5021392;28;20189;-87
2022/04/07 08:49:21;;;;;;;1.73;1.20;;;11.60;96.20;;;;;;5018587;28;20209;-85
2022/04/07 08:51:48;;;;;;;2.40;1.27;;;11.60;99.10;;;;;;5025431;28;20201;-86
2022/04/07 08:54:14;;;;;;;2.20;1.33;;;11.50;99.90;;;;;;5024163;28;20192;-86
2022/04/07 08:56:40;;;;;;;1.23;1.23;;;11.40;99.90;;;;;;5019852;28;20189;-85
2022/04/07 08:59:06;;;;;;;3.67;1.30;;;11.50;99.90;;;;;;5024224;28;20205;-86
2022/04/07 09:01:31;;;;;;;1.57;1.10;;;11.40;99.90;;;;;;5022336;28;20196;-85
2022/04/07 09:03:57;;;;;;;3.63;1.40;;;11.30;99.90;;;;;;5011119;28;20217;-84
2022/04/07 09:06:23;;;;;;;2.40;1.30;;;11.30;99.90;;;;;;5022429;28;20197;-85
2022/04/07 09:08:49;;;;;;;3.27;1.40;;;11.20;99.90;;;;;;5022870;28;20198;-86
2022/04/07 09:11:17;;;;;;;1.27;1.20;;;11.20;99.90;;;;;;5019344;28;20212;-85
2022/04/07 09:13:45;;;;;;;1.20;1.10;;;11.30;99.90;;;;;;5011639;28;20240;-85
2022/04/07 09:16:13;;;;;;;1.40;1.30;;;11.30;99.90;;;;;;5018006;28;20747;-85
2022/04/07 09:18:41;;;;;;;1.27;1.17;;;11.20;99.90;;;;;;5007893;28;20218;-85
2022/04/07 09:21:15;;;;;;;1.30;1.30;;;11.20;99.90;;;;;;5021777;28;20204;-84
2022/04/07 09:23:42;;;;;;;1.67;1.23;;;11.00;99.90;;;;;;5022907;28;20189;-87
2022/04/07 09:26:11;;;;;;;1.23;1.13;;;10.90;99.90;;;;;;5023265;28;20304;-85
2022/04/07 09:28:37;;;;;;;2.67;1.20;;;10.90;99.90;;;;;;5023639;28;20209;-85
2022/04/07 09:31:03;;;;;;;1.27;1.20;;;10.90;99.90;;;;;;5024168;28;20189;-84
2022/04/07 09:33:29;;;;;;;1.10;1.10;;;11.00;99.90;;;;;;5023814;28;20213;-84
2022/04/07 09:36:10;;;;;;;1.77;1.23;;;11.10;99.90;;;;;;5011892;28;20201;-86
2022/04/07 09:38:39;;;;;;;1.33;1.23;;;11.10;99.90;;;;;;5014199;28;20218;-86
2022/04/07 09:41:13;;;;;;;1.50;1.17;;;11.10;99.90;;;;;;5012096;28;20182;-86
2022/04/07 09:43:42;;;;;;;0.90;0.90;;;11.10;99.90;;;;;;5017964;28;20204;-85
2022/04/07 09:46:13;;;;;;;2.50;1.50;;;11.20;99.90;;;;;;5012453;28;20186;-85
2022/04/07 09:48:39;;;;;;;4.33;1.40;;;11.30;99.90;;;;;;4999448;28;20822;-84
2022/04/07 09:51:07;;;;;;;1.60;1.20;;;11.30;99.90;;;;;;5013206;28;20272;-87
2022/04/07 09:53:40;;;;;;;1.30;1.20;;;11.40;99.90;;;;;;5011522;28;20213;-86
2022/04/07 09:56:07;;;;;;;2.97;1.43;;;11.50;99.90;;;;;;5023683;28;20248;-86
2022/04/07 09:58:34;;;;;;;2.37;1.37;;;11.60;99.90;;;;;;5021553;28;20278;-87
2022/04/07 10:01:04;;;;;;;1.73;1.40;;;11.60;98.30;;;;;;5018983;28;20187;-87
2022/04/07 10:03:31;;;;;;;1.67;1.20;;;11.70;99.60;;;;;;5015723;28;20198;-88
2022/04/07 10:06:00;;;;;;;2.90;1.23;;;11.70;98.60;;;;;;5023793;28;20202;-86
2022/04/07 10:08:26;;;;;;;1.40;1.30;;;11.80;99.90;;;;;;5015032;28;20256;-85
2022/04/07 10:10:53;;;;;;;1.40;1.30;;;11.90;99.70;;;;;;5028148;28;20201;-87
2022/04/07 10:13:20;;;;;;;1.73;1.30;;;11.90;99.00;;;;;;5019455;28;20190;-87
2022/04/07 10:15:47;;;;;;;1.50;1.30;;;12.00;99.90;;;;;;5016162;28;20198;-84
2022/04/07 10:18:26;;;;;;;3.10;1.40;;;12.00;98.20;;;;;;5009553;28;20218;-87
2022/04/07 10:20:57;;;;;;;2.20;1.17;;;12.00;96.70;;;;;;5028018;28;20193;-86
2022/04/07 10:23:57;;;;;;;1.70;1.20;;;12.00;98.80;;;;;;5009984;28;20182;-87
2022/04/07 10:26:25;;;;;;;1.13;1.00;;;12.10;97.40;;;;;;5015552;28;20187;-86
2022/04/07 10:29:00;;;;;;;1.67;1.10;;;12.30;94.30;;;;;;5013901;28;20225;-86
2022/04/07 10:31:26;;;;;;;1.53;1.13;;;12.40;93.40;;;;;;5009902;28;20762;-87
2022/04/07 10:34:06;;;;;;;2.90;1.30;;;12.30;93.80;;;;;;5019853;28;20257;-85
2022/04/07 10:36:39;;;;;;;1.10;1.00;;;12.40;94.40;;;;;;5024380;28;20328;-87
2022/04/07 10:39:12;;;;;;;1.37;1.10;;;12.40;93.00;;;;;;5019610;28;20224;-87
2022/04/07 10:41:38;;;;;;;1.43;1.20;;;12.40;93.50;;;;;;5020577;28;20221;-84
2022/04/07 10:44:10;;;;;;;1.33;1.23;;;12.50;92.20;;;;;;5016760;28;20689;-86
2022/04/07 10:46:36;;;;;;;1.87;1.10;;;12.40;93.60;;;;;;5016234;28;20190;-86
2022/04/07 10:49:07;;;;;;;1.73;1.07;;;12.40;91.30;;;;;;5003774;28;20202;-86
2022/04/07 10:51:43;;;;;;;1.60;1.50;;;12.40;93.80;;;;;;5018698;28;20190;-86
2022/04/07 10:54:10;;;;;;;1.30;1.20;;;12.40;91.90;;;;;;5017491;28;20190;-86
2022/04/07 10:56:38;;;;;;;1.27;1.20;;;12.50;92.60;;;;;;5006216;28;20202;-86
2022/04/07 10:59:16;;;;;;;1.60;1.50;;;12.60;90.50;;;;;;5016406;28;20242;-85
2022/04/07 11:01:42;;;;;;;2.67;1.00;;;12.80;89.50;;;;;;5014915;28;20241;-86
2022/04/07 11:04:23;;;;;;;1.00;1.00;;;12.90;89.30;;;;;;5019810;28;20608;-85
2022/04/07 11:07:07;;;;;;;7.77;1.33;;;12.90;90.20;;;;;;5015472;28;20247;-86
2022/04/07 11:09:57;;;;;;;2.40;1.20;;;13.10;90.30;;;;;;5013034;28;20190;-86
2022/04/07 11:12:29;;;;;;;1.00;1.00;;;12.90;88.60;;;;;;5018312;28;20241;-86
2022/04/07 11:15:01;;;;;;;1.27;1.20;;;12.90;89.80;;;;;;5020586;28;20593;-86
2022/04/07 11:17:56;;;;;;;1.33;1.30;;;13.00;90.10;;;;;;5018629;28;20279;-86
2022/04/07 11:20:25;;;;;;;1.17;1.10;;;12.90;90.60;;;;;;5007702;28;20248;-86
2022/04/07 11:23:01;;;;;;;2.90;1.40;;;12.80;91.90;;;;;;5015183;28;20191;-86
2022/04/07 11:25:33;;;;;;;1.30;1.20;;;12.80;91.90;;;;;;5017173;28;20688;-86
2022/04/07 11:28:04;;;;;;;1.50;1.20;;;12.90;90.70;;;;;;5017444;28;20264;-86
2022/04/07 11:30:49;;;;;;;3.73;1.20;;;12.80;91.10;;;;;;5010033;28;20217;-86
2022/04/07 11:33:25;;;;;;;1.10;1.10;;;12.80;91.20;;;;;;5020337;28;20178;-86
2022/04/07 11:36:00;;;;;;;1.10;1.10;;;12.80;92.30;;;;;;5013953;28;20188;-86
2022/04/07 11:38:45;;;;;;;1.40;1.10;;;12.90;90.00;;;;;;5017264;28;20211;-86
2022/04/07 11:41:16;;;;;;;1.03;1.03;;;13.00;90.70;;;;;;5020925;28;20681;-85
2022/04/07 11:43:52;;;;;;;1.00;1.00;;;13.00;90.80;;;;;;5024380;28;20213;-85
2022/04/07 11:46:26;;;;;;;2.63;1.13;;;13.10;88.70;;;;;;5014848;28;20197;-86
2022/04/07 11:48:55;;;;;;;2.03;1.10;;;13.10;88.60;;;;;;5013833;28;20207;-86
2022/04/07 11:51:21;;;;;;;1.80;1.13;;;13.30;89.40;;;;;;5015717;28;20203;-86
2022/04/07 11:53:58;;;;;;;1.30;1.20;;;13.20;89.50;;;;;;5011284;28;20190;-86
2022/04/07 11:56:28;;;;;;;1.10;1.10;;;13.10;93.80;;;;;;5020876;28;20230;-86
2022/04/07 11:58:58;;;;;;;1.10;1.10;;;12.90;97.80;;;;;;5014113;28;20214;-86
2022/04/07 12:01:24;;;;;;;1.10;1.00;;;12.90;95.70;;;;;;5011900;28;20182;-86
2022/04/07 12:03:54;;;;;;;1.07;0.97;;;12.90;95.20;;;;;;5015945;28;20194;-86
2022/04/07 12:06:29;;;;;;;1.10;1.00;;;13.00;95.20;;;;;;5016943;28;20198;-87
2022/04/07 12:08:55;;;;;;;1.50;1.10;;;13.20;92.50;;;;;;5017802;28;20218;-85
2022/04/07 12:11:23;;;;;;;1.13;1.10;;;13.20;94.70;;;;;;5015447;28;20191;-84
2022/04/07 12:13:53;;;;;;;1.00;1.00;;;13.10;96.90;;;;;;5020804;28;20205;-84
2022/04/07 12:16:21;;;;;;;1.80;1.10;;;13.10;96.00;;;;;;5013790;28;20221;-84
2022/04/07 12:19:01;;;;;;;2.03;1.10;;;13.10;94.80;;;;;;5019159;28;20233;-84
2022/04/07 12:21:29;;;;;;;1.00;1.00;;;13.10;94.50;;;;;;5003733;28;20259;-85
2022/04/07 12:24:09;;;;;;;1.13;1.00;;;13.10;91.40;;;;;;5009690;28;20201;-85
2022/04/07 12:26:52;;;;;;;1.53;1.43;;;13.10;92.10;;;;;;5017649;28;20185;-85
2022/04/07 12:29:19;;;;;;;1.10;1.10;;;13.10;92.60;;;;;;5012156;28;20202;-85
2022/04/07 12:31:45;;;;;;;1.17;1.10;;;13.10;91.10;;;;;;5012555;28;20191;-85
2022/04/07 12:34:13;;;;;;;1.17;1.10;;;13.30;91.10;;;;;;5005683;28;20194;-85
2022/04/07 12:36:40;;;;;;;1.13;1.10;;;13.30;90.00;;;;;;5014423;28;20191;-86
2022/04/07 12:39:08;;;;;;;1.27;1.23;;;13.30;88.50;;;;;;5009760;28;20269;-86
2022/04/07 12:41:38;;;;;;;0.90;0.90;;;13.30;88.80;;;;;;5016697;28;20208;-87
2022/04/07 12:44:04;;;;;;;2.17;0.90;;;13.20;89.70;;;;;;5019898;28;20679;-86
2022/04/07 12:46:48;;;;;;;2.47;1.10;;;13.20;87.30;;;;;;5010495;28;20268;-86
2022/04/07 12:49:14;;;;;;;1.10;1.10;;;13.40;87.10;;;;;;5009679;28;20210;-86
2022/04/07 12:51:41;;;;;;;1.00;1.00;;;13.40;88.90;;;;;;5018667;28;20221;-85